sensor_id;sensor_type;location;lat;lon;timestamp;P1;durP1;ratioP1;P2;durP2;ratioP2
22778;SDS011;11556;51.194;3.800;2022-08-03T00:00:39;4.05;;;1.60;;
22778;SDS011;11556;51.194;3.800;2022-08-03T00:03:05;6.25;;;1.50;;
22778;SDS011;11556;51.194;3.800;2022-08-03T00:05:31;6.75;;;1.60;;
22778;SDS011;11556;51.194;3.800;2022-08-03T00:07:59;4.88;;;1.50;;
22778;SDS011;11556;51.194;3.800;2022-08-03T00:10:25;8.98;;;1.73;;
22778;SDS011;11556;51.194;3.800;2022-08-03T00:12:51;7.88;;;1.73;;
22778;SDS011;11556;51.194;3.800;2022-08-03T00:15:17;6.45;;;1.65;;
22778;SDS011;11556;51.194;3.800;2022-08-03T00:17:43;8.52;;;1.67;;
22778;SDS011;11556;51.194;3.800;2022-08-03T00:20:09;6.28;;;2.05;;
22778;SDS011;11556;51.194;3.800;2022-08-03T00:22:35;9.57;;;1.80;;
22778;SDS011;11556;51.194;3.800;2022-08-03T00:25:01;11.18;;;2.15;;
22778;SDS011;11556;51.194;3.800;2022-08-03T00:27:26;7.35;;;1.88;;
22778;SDS011;11556;51.194;3.800;2022-08-03T00:29:52;12.60;;;2.40;;
22778;SDS011;11556;51.194;3.800;2022-08-03T00:32:17;6.85;;;2.15;;
22778;SDS011;11556;51.194;3.800;2022-08-03T00:34:43;7.13;;;1.85;;
22778;SDS011;11556;51.194;3.800;2022-08-03T00:37:08;7.90;;;2.00;;
22778;SDS011;11556;51.194;3.800;2022-08-03T00:39:34;8.85;;;2.00;;
22778;SDS011;11556;51.194;3.800;2022-08-03T00:42:03;9.82;;;2.50;;
22778;SDS011;11556;51.194;3.800;2022-08-03T00:44:29;8.43;;;2.00;;
22778;SDS011;11556;51.194;3.800;2022-08-03T00:46:55;8.90;;;2.28;;
22778;SDS011;11556;51.194;3.800;2022-08-03T00:49:21;9.98;;;2.40;;
22778;SDS011;11556;51.194;3.800;2022-08-03T00:51:48;9.07;;;2.25;;
22778;SDS011;11556;51.194;3.800;2022-08-03T00:54:13;14.80;;;2.33;;
22778;SDS011;11556;51.194;3.800;2022-08-03T00:56:40;5.95;;;2.10;;
22778;SDS011;11556;51.194;3.800;2022-08-03T00:59:08;9.10;;;2.38;;
22778;SDS011;11556;51.194;3.800;2022-08-03T01:01:34;12.70;;;2.20;;
22778;SDS011;11556;51.194;3.800;2022-08-03T01:04:00;13.50;;;2.50;;
22778;SDS011;11556;51.194;3.800;2022-08-03T01:11:39;14.20;;;2.20;;
22778;SDS011;11556;51.194;3.800;2022-08-03T01:14:22;11.95;;;2.28;;
22778;SDS011;11556;51.194;3.800;2022-08-03T01:16:56;8.40;;;2.25;;
22778;SDS011;11556;51.194;3.800;2022-08-03T01:30:52;13.07;;;2.90;;
22778;SDS011;11556;51.194;3.800;2022-08-03T01:33:23;12.02;;;2.95;;
22778;SDS011;11556;51.194;3.800;2022-08-03T01:35:59;11.73;;;2.60;;
22778;SDS011;11556;51.194;3.800;2022-08-03T01:38:29;7.50;;;2.60;;
22778;SDS011;11556;51.194;3.800;2022-08-03T01:41:21;17.60;;;3.03;;
22778;SDS011;11556;51.194;3.800;2022-08-03T01:43:48;8.82;;;2.67;;
22778;SDS011;11556;51.194;3.800;2022-08-03T01:46:16;11.65;;;3.05;;
22778;SDS011;11556;51.194;3.800;2022-08-03T01:48:45;10.88;;;2.85;;
22778;SDS011;11556;51.194;3.800;2022-08-03T01:51:12;9.80;;;2.70;;
22778;SDS011;11556;51.194;3.800;2022-08-03T01:53:40;13.95;;;2.70;;
22778;SDS011;11556;51.194;3.800;2022-08-03T01:56:07;12.63;;;2.63;;
22778;SDS011;11556;51.194;3.800;2022-08-03T01:58:34;13.82;;;2.50;;
22778;SDS011;11556;51.194;3.800;2022-08-03T02:01:01;10.18;;;2.67;;
22778;SDS011;11556;51.194;3.800;2022-08-03T02:03:28;8.80;;;2.67;;
22778;SDS011;11556;51.194;3.800;2022-08-03T02:05:58;16.27;;;2.72;;
22778;SDS011;11556;51.194;3.800;2022-08-03T02:08:25;11.52;;;2.88;;
22778;SDS011;11556;51.194;3.800;2022-08-03T02:10:53;10.50;;;2.97;;
22778;SDS011;11556;51.194;3.800;2022-08-03T02:13:20;9.93;;;2.83;;
22778;SDS011;11556;51.194;3.800;2022-08-03T02:15:48;12.30;;;2.88;;
22778;SDS011;11556;51.194;3.800;2022-08-03T02:18:16;12.32;;;3.00;;
22778;SDS011;11556;51.194;3.800;2022-08-03T02:20:43;15.38;;;3.67;;
22778;SDS011;11556;51.194;3.800;2022-08-03T02:23:10;14.82;;;3.28;;
22778;SDS011;11556;51.194;3.800;2022-08-03T02:25:43;14.35;;;2.90;;
22778;SDS011;11556;51.194;3.800;2022-08-03T02:28:11;9.27;;;2.70;;
22778;SDS011;11556;51.194;3.800;2022-08-03T02:30:43;15.43;;;3.03;;
22778;SDS011;11556;51.194;3.800;2022-08-03T02:33:11;14.80;;;2.90;;
22778;SDS011;11556;51.194;3.800;2022-08-03T02:35:41;12.82;;;2.63;;
22778;SDS011;11556;51.194;3.800;2022-08-03T02:38:09;12.52;;;2.40;;
22778;SDS011;11556;51.194;3.800;2022-08-03T02:40:37;9.57;;;2.22;;
22778;SDS011;11556;51.194;3.800;2022-08-03T02:43:06;9.18;;;2.22;;
22778;SDS011;11556;51.194;3.800;2022-08-03T02:45:36;9.18;;;2.28;;
22778;SDS011;11556;51.194;3.800;2022-08-03T02:48:08;12.27;;;2.55;;
22778;SDS011;11556;51.194;3.800;2022-08-03T02:50:36;11.70;;;2.90;;
22778;SDS011;11556;51.194;3.800;2022-08-03T02:53:03;9.75;;;2.38;;
22778;SDS011;11556;51.194;3.800;2022-08-03T02:55:31;12.43;;;2.67;;
22778;SDS011;11556;51.194;3.800;2022-08-03T02:57:59;13.30;;;2.70;;
22778;SDS011;11556;51.194;3.800;2022-08-03T03:00:26;14.10;;;2.88;;
22778;SDS011;11556;51.194;3.800;2022-08-03T03:02:54;12.50;;;2.70;;
22778;SDS011;11556;51.194;3.800;2022-08-03T03:05:22;16.73;;;2.65;;
22778;SDS011;11556;51.194;3.800;2022-08-03T03:07:48;15.82;;;2.78;;
22778;SDS011;11556;51.194;3.800;2022-08-03T03:10:14;11.25;;;2.65;;
22778;SDS011;11556;51.194;3.800;2022-08-03T03:12:39;19.52;;;3.10;;
22778;SDS011;11556;51.194;3.800;2022-08-03T03:15:07;13.80;;;2.90;;
22778;SDS011;11556;51.194;3.800;2022-08-03T03:17:33;12.05;;;2.53;;
22778;SDS011;11556;51.194;3.800;2022-08-03T03:20:01;14.38;;;2.33;;
22778;SDS011;11556;51.194;3.800;2022-08-03T03:22:28;11.25;;;2.25;;
22778;SDS011;11556;51.194;3.800;2022-08-03T03:24:56;10.88;;;2.70;;
22778;SDS011;11556;51.194;3.800;2022-08-03T03:27:22;13.15;;;2.45;;
22778;SDS011;11556;51.194;3.800;2022-08-03T03:29:48;13.38;;;2.72;;
22778;SDS011;11556;51.194;3.800;2022-08-03T03:32:14;13.93;;;2.55;;
22778;SDS011;11556;51.194;3.800;2022-08-03T03:34:39;12.73;;;2.65;;
22778;SDS011;11556;51.194;3.800;2022-08-03T03:37:06;10.40;;;3.00;;
22778;SDS011;11556;51.194;3.800;2022-08-03T03:39:32;9.18;;;2.55;;
22778;SDS011;11556;51.194;3.800;2022-08-03T03:41:58;11.73;;;3.08;;
22778;SDS011;11556;51.194;3.800;2022-08-03T03:44:25;10.20;;;2.40;;
22778;SDS011;11556;51.194;3.800;2022-08-03T03:46:52;12.57;;;2.33;;
22778;SDS011;11556;51.194;3.800;2022-08-03T03:49:19;11.95;;;2.67;;
22778;SDS011;11556;51.194;3.800;2022-08-03T03:51:45;11.02;;;2.42;;
22778;SDS011;11556;51.194;3.800;2022-08-03T03:54:11;10.43;;;2.42;;
22778;SDS011;11556;51.194;3.800;2022-08-03T03:56:36;14.57;;;2.97;;
22778;SDS011;11556;51.194;3.800;2022-08-03T03:59:02;12.77;;;2.70;;
22778;SDS011;11556;51.194;3.800;2022-08-03T04:01:28;10.57;;;2.60;;
22778;SDS011;11556;51.194;3.800;2022-08-03T04:03:55;12.32;;;2.70;;
22778;SDS011;11556;51.194;3.800;2022-08-03T04:06:20;9.75;;;2.28;;
22778;SDS011;11556;51.194;3.800;2022-08-03T04:09:04;13.05;;;2.20;;
22778;SDS011;11556;51.194;3.800;2022-08-03T04:11:51;7.88;;;2.10;;
22778;SDS011;11556;51.194;3.800;2022-08-03T04:16:49;9.85;;;3.10;;
22778;SDS011;11556;51.194;3.800;2022-08-03T04:21:58;12.27;;;2.72;;
22778;SDS011;11556;51.194;3.800;2022-08-03T04:24:39;12.43;;;2.80;;
22778;SDS011;11556;51.194;3.800;2022-08-03T04:27:11;7.65;;;2.03;;
22778;SDS011;11556;51.194;3.800;2022-08-03T04:29:40;11.65;;;2.58;;
22778;SDS011;11556;51.194;3.800;2022-08-03T04:32:10;11.10;;;2.38;;
22778;SDS011;11556;51.194;3.800;2022-08-03T04:34:36;18.15;;;3.22;;
22778;SDS011;11556;51.194;3.800;2022-08-03T04:37:04;11.00;;;2.42;;
22778;SDS011;11556;51.194;3.800;2022-08-03T04:39:39;10.23;;;2.67;;
22778;SDS011;11556;51.194;3.800;2022-08-03T04:42:06;18.77;;;3.00;;
22778;SDS011;11556;51.194;3.800;2022-08-03T04:44:36;14.40;;;2.85;;
22778;SDS011;11556;51.194;3.800;2022-08-03T04:47:04;16.23;;;3.10;;
22778;SDS011;11556;51.194;3.800;2022-08-03T04:49:30;16.27;;;3.10;;
22778;SDS011;11556;51.194;3.800;2022-08-03T04:51:56;9.57;;;2.75;;
22778;SDS011;11556;51.194;3.800;2022-08-03T04:54:22;13.82;;;2.78;;
22778;SDS011;11556;51.194;3.800;2022-08-03T04:56:48;15.25;;;2.45;;
22778;SDS011;11556;51.194;3.800;2022-08-03T04:59:14;12.98;;;2.83;;
22778;SDS011;11556;51.194;3.800;2022-08-03T05:01:41;10.45;;;2.70;;
22778;SDS011;11556;51.194;3.800;2022-08-03T05:04:07;12.10;;;2.75;;
22778;SDS011;11556;51.194;3.800;2022-08-03T05:06:33;13.88;;;2.83;;
22778;SDS011;11556;51.194;3.800;2022-08-03T05:08:59;14.40;;;2.80;;
22778;SDS011;11556;51.194;3.800;2022-08-03T05:11:24;12.43;;;3.03;;
22778;SDS011;11556;51.194;3.800;2022-08-03T05:13:50;19.75;;;3.20;;
22778;SDS011;11556;51.194;3.800;2022-08-03T05:16:16;15.98;;;2.80;;
22778;SDS011;11556;51.194;3.800;2022-08-03T05:18:42;12.00;;;2.75;;
22778;SDS011;11556;51.194;3.800;2022-08-03T05:21:08;19.80;;;2.97;;
22778;SDS011;11556;51.194;3.800;2022-08-03T05:23:34;12.98;;;2.60;;
22778;SDS011;11556;51.194;3.800;2022-08-03T05:26:02;14.73;;;2.67;;
22778;SDS011;11556;51.194;3.800;2022-08-03T05:28:27;16.77;;;2.80;;
22778;SDS011;11556;51.194;3.800;2022-08-03T05:30:53;12.40;;;2.70;;
22778;SDS011;11556;51.194;3.800;2022-08-03T05:33:19;17.80;;;3.00;;
22778;SDS011;11556;51.194;3.800;2022-08-03T05:35:44;16.98;;;2.30;;
22778;SDS011;11556;51.194;3.800;2022-08-03T05:38:10;18.23;;;2.28;;
22778;SDS011;11556;51.194;3.800;2022-08-03T05:40:36;16.20;;;2.67;;
22778;SDS011;11556;51.194;3.800;2022-08-03T05:43:01;14.25;;;2.60;;
22778;SDS011;11556;51.194;3.800;2022-08-03T05:45:27;15.32;;;2.80;;
22778;SDS011;11556;51.194;3.800;2022-08-03T05:47:52;15.88;;;2.75;;
22778;SDS011;11556;51.194;3.800;2022-08-03T05:50:19;12.07;;;2.90;;
22778;SDS011;11556;51.194;3.800;2022-08-03T05:52:45;16.42;;;2.50;;
22778;SDS011;11556;51.194;3.800;2022-08-03T05:55:11;16.00;;;2.47;;
22778;SDS011;11556;51.194;3.800;2022-08-03T05:57:37;10.20;;;2.05;;
22778;SDS011;11556;51.194;3.800;2022-08-03T06:00:04;13.23;;;2.50;;
22778;SDS011;11556;51.194;3.800;2022-08-03T06:02:34;17.13;;;2.42;;
22778;SDS011;11556;51.194;3.800;2022-08-03T06:05:00;38.90;;;4.25;;
22778;SDS011;11556;51.194;3.800;2022-08-03T06:07:26;26.65;;;3.60;;
22778;SDS011;11556;51.194;3.800;2022-08-03T06:09:52;39.63;;;4.13;;
22778;SDS011;11556;51.194;3.800;2022-08-03T06:12:18;42.47;;;3.95;;
22778;SDS011;11556;51.194;3.800;2022-08-03T06:14:44;33.75;;;3.78;;
22778;SDS011;11556;51.194;3.800;2022-08-03T06:17:10;43.17;;;3.97;;
22778;SDS011;11556;51.194;3.800;2022-08-03T06:19:35;20.33;;;2.85;;
22778;SDS011;11556;51.194;3.800;2022-08-03T06:22:01;11.88;;;2.53;;
22778;SDS011;11556;51.194;3.800;2022-08-03T06:24:27;11.50;;;2.40;;
22778;SDS011;11556;51.194;3.800;2022-08-03T06:26:52;16.10;;;2.72;;
22778;SDS011;11556;51.194;3.800;2022-08-03T06:29:18;16.02;;;2.63;;
22778;SDS011;11556;51.194;3.800;2022-08-03T06:31:44;13.25;;;2.55;;
22778;SDS011;11556;51.194;3.800;2022-08-03T06:34:09;22.17;;;3.03;;
22778;SDS011;11556;51.194;3.800;2022-08-03T06:36:35;16.30;;;2.80;;
22778;SDS011;11556;51.194;3.800;2022-08-03T06:39:01;16.45;;;2.70;;
22778;SDS011;11556;51.194;3.800;2022-08-03T06:41:27;17.60;;;2.75;;
22778;SDS011;11556;51.194;3.800;2022-08-03T06:43:53;18.48;;;2.35;;
22778;SDS011;11556;51.194;3.800;2022-08-03T06:46:19;13.35;;;2.53;;
22778;SDS011;11556;51.194;3.800;2022-08-03T06:48:44;17.42;;;2.95;;
22778;SDS011;11556;51.194;3.800;2022-08-03T06:51:10;11.20;;;2.50;;
22778;SDS011;11556;51.194;3.800;2022-08-03T06:53:36;12.48;;;2.80;;
22778;SDS011;11556;51.194;3.800;2022-08-03T06:56:05;14.15;;;2.55;;
22778;SDS011;11556;51.194;3.800;2022-08-03T06:58:32;19.52;;;3.08;;
22778;SDS011;11556;51.194;3.800;2022-08-03T07:00:58;17.63;;;2.53;;
22778;SDS011;11556;51.194;3.800;2022-08-03T07:03:23;13.00;;;2.35;;
22778;SDS011;11556;51.194;3.800;2022-08-03T07:05:49;15.13;;;2.95;;
22778;SDS011;11556;51.194;3.800;2022-08-03T07:08:15;11.48;;;2.63;;
22778;SDS011;11556;51.194;3.800;2022-08-03T07:10:41;14.20;;;2.42;;
22778;SDS011;11556;51.194;3.800;2022-08-03T07:13:07;15.60;;;2.85;;
22778;SDS011;11556;51.194;3.800;2022-08-03T07:15:33;15.38;;;2.30;;
22778;SDS011;11556;51.194;3.800;2022-08-03T07:17:59;14.20;;;2.63;;
22778;SDS011;11556;51.194;3.800;2022-08-03T07:20:25;16.42;;;2.70;;
22778;SDS011;11556;51.194;3.800;2022-08-03T07:22:51;12.25;;;2.33;;
22778;SDS011;11556;51.194;3.800;2022-08-03T07:25:16;20.10;;;2.75;;
22778;SDS011;11556;51.194;3.800;2022-08-03T07:27:42;12.85;;;2.03;;
22778;SDS011;11556;51.194;3.800;2022-08-03T07:30:09;12.88;;;2.47;;
22778;SDS011;11556;51.194;3.800;2022-08-03T07:32:35;16.63;;;2.72;;
22778;SDS011;11556;51.194;3.800;2022-08-03T07:35:01;19.90;;;2.78;;
22778;SDS011;11556;51.194;3.800;2022-08-03T07:37:28;16.27;;;2.92;;
22778;SDS011;11556;51.194;3.800;2022-08-03T07:39:54;18.92;;;2.78;;
22778;SDS011;11556;51.194;3.800;2022-08-03T07:42:19;11.80;;;2.58;;
22778;SDS011;11556;51.194;3.800;2022-08-03T07:44:45;14.95;;;2.47;;
22778;SDS011;11556;51.194;3.800;2022-08-03T07:47:10;10.10;;;2.22;;
22778;SDS011;11556;51.194;3.800;2022-08-03T07:49:40;16.88;;;3.20;;
22778;SDS011;11556;51.194;3.800;2022-08-03T07:52:05;19.40;;;2.50;;
22778;SDS011;11556;51.194;3.800;2022-08-03T07:54:50;17.60;;;2.70;;
22778;SDS011;11556;51.194;3.800;2022-08-03T07:57:15;13.93;;;2.92;;
22778;SDS011;11556;51.194;3.800;2022-08-03T07:59:41;12.35;;;2.83;;
22778;SDS011;11556;51.194;3.800;2022-08-03T08:02:07;15.93;;;3.25;;
22778;SDS011;11556;51.194;3.800;2022-08-03T08:04:32;9.57;;;2.30;;
22778;SDS011;11556;51.194;3.800;2022-08-03T08:06:58;21.45;;;3.25;;
22778;SDS011;11556;51.194;3.800;2022-08-03T08:09:23;13.00;;;3.13;;
22778;SDS011;11556;51.194;3.800;2022-08-03T08:11:49;21.48;;;3.17;;
22778;SDS011;11556;51.194;3.800;2022-08-03T08:14:15;19.00;;;2.92;;
22778;SDS011;11556;51.194;3.800;2022-08-03T08:16:40;14.40;;;2.90;;
22778;SDS011;11556;51.194;3.800;2022-08-03T08:19:06;14.90;;;2.83;;
22778;SDS011;11556;51.194;3.800;2022-08-03T08:21:32;20.30;;;3.05;;
22778;SDS011;11556;51.194;3.800;2022-08-03T08:23:58;18.00;;;3.20;;
22778;SDS011;11556;51.194;3.800;2022-08-03T08:26:24;16.15;;;3.10;;
22778;SDS011;11556;51.194;3.800;2022-08-03T08:28:49;12.20;;;2.58;;
22778;SDS011;11556;51.194;3.800;2022-08-03T08:31:16;14.40;;;3.20;;
22778;SDS011;11556;51.194;3.800;2022-08-03T08:33:42;14.82;;;2.70;;
22778;SDS011;11556;51.194;3.800;2022-08-03T08:36:07;15.85;;;2.88;;
22778;SDS011;11556;51.194;3.800;2022-08-03T08:38:33;19.13;;;2.90;;
22778;SDS011;11556;51.194;3.800;2022-08-03T08:40:59;13.98;;;2.50;;
22778;SDS011;11556;51.194;3.800;2022-08-03T08:43:25;16.60;;;2.80;;
22778;SDS011;11556;51.194;3.800;2022-08-03T08:45:51;13.57;;;2.58;;
22778;SDS011;11556;51.194;3.800;2022-08-03T08:48:21;14.23;;;2.88;;
22778;SDS011;11556;51.194;3.800;2022-08-03T08:50:52;11.98;;;2.58;;
22778;SDS011;11556;51.194;3.800;2022-08-03T08:53:19;19.23;;;2.65;;
22778;SDS011;11556;51.194;3.800;2022-08-03T08:55:46;16.40;;;2.88;;
22778;SDS011;11556;51.194;3.800;2022-08-03T08:58:12;15.48;;;2.80;;
22778;SDS011;11556;51.194;3.800;2022-08-03T09:00:43;12.02;;;2.63;;
22778;SDS011;11556;51.194;3.800;2022-08-03T09:03:09;13.73;;;2.33;;
22778;SDS011;11556;51.194;3.800;2022-08-03T09:05:35;15.80;;;2.60;;
22778;SDS011;11556;51.194;3.800;2022-08-03T09:08:03;13.10;;;2.25;;
22778;SDS011;11556;51.194;3.800;2022-08-03T09:10:30;17.00;;;2.45;;
22778;SDS011;11556;51.194;3.800;2022-08-03T09:12:55;14.98;;;2.50;;
22778;SDS011;11556;51.194;3.800;2022-08-03T09:15:25;13.18;;;2.47;;
22778;SDS011;11556;51.194;3.800;2022-08-03T09:17:53;17.58;;;2.75;;
22778;SDS011;11556;51.194;3.800;2022-08-03T09:20:21;11.40;;;2.50;;
22778;SDS011;11556;51.194;3.800;2022-08-03T09:25:39;18.60;;;2.97;;
22778;SDS011;11556;51.194;3.800;2022-08-03T09:30:37;15.45;;;2.38;;
22778;SDS011;11556;51.194;3.800;2022-08-03T09:33:23;13.93;;;2.78;;
22778;SDS011;11556;51.194;3.800;2022-08-03T09:35:49;14.20;;;2.70;;
22778;SDS011;11556;51.194;3.800;2022-08-03T09:38:15;11.98;;;2.20;;
22778;SDS011;11556;51.194;3.800;2022-08-03T09:40:42;14.10;;;2.60;;
22778;SDS011;11556;51.194;3.800;2022-08-03T09:43:09;15.93;;;2.45;;
22778;SDS011;11556;51.194;3.800;2022-08-03T09:45:35;9.32;;;1.83;;
22778;SDS011;11556;51.194;3.800;2022-08-03T09:48:24;17.63;;;2.47;;
22778;SDS011;11556;51.194;3.800;2022-08-03T09:50:49;10.60;;;2.28;;
22778;SDS011;11556;51.194;3.800;2022-08-03T09:53:18;19.65;;;2.88;;
22778;SDS011;11556;51.194;3.800;2022-08-03T09:58:19;10.00;;;1.80;;
22778;SDS011;11556;51.194;3.800;2022-08-03T10:00:51;19.27;;;2.22;;
22778;SDS011;11556;51.194;3.800;2022-08-03T10:03:19;11.77;;;1.92;;
22778;SDS011;11556;51.194;3.800;2022-08-03T10:05:45;14.38;;;2.22;;
22778;SDS011;11556;51.194;3.800;2022-08-03T10:08:14;12.43;;;2.17;;
22778;SDS011;11556;51.194;3.800;2022-08-03T10:10:42;13.97;;;2.43;;
22778;SDS011;11556;51.194;3.800;2022-08-03T10:13:17;12.52;;;2.30;;
22778;SDS011;11556;51.194;3.800;2022-08-03T10:15:44;10.73;;;1.98;;
22778;SDS011;11556;51.194;3.800;2022-08-03T10:18:11;14.55;;;2.50;;
22778;SDS011;11556;51.194;3.800;2022-08-03T10:20:43;7.55;;;1.85;;
22778;SDS011;11556;51.194;3.800;2022-08-03T10:23:13;13.65;;;2.50;;
22778;SDS011;11556;51.194;3.800;2022-08-03T10:25:40;15.40;;;2.22;;
22778;SDS011;11556;51.194;3.800;2022-08-03T10:28:12;15.27;;;2.42;;
22778;SDS011;11556;51.194;3.800;2022-08-03T10:30:41;14.18;;;2.58;;
22778;SDS011;11556;51.194;3.800;2022-08-03T10:35:40;8.52;;;1.88;;
22778;SDS011;11556;51.194;3.800;2022-08-03T10:38:09;11.18;;;2.10;;
22778;SDS011;11556;51.194;3.800;2022-08-03T10:40:40;14.77;;;2.15;;
22778;SDS011;11556;51.194;3.800;2022-08-03T10:43:07;9.98;;;1.98;;
22778;SDS011;11556;51.194;3.800;2022-08-03T10:45:36;11.05;;;1.75;;
22778;SDS011;11556;51.194;3.800;2022-08-03T10:48:05;12.43;;;2.10;;
22778;SDS011;11556;51.194;3.800;2022-08-03T10:50:32;9.57;;;1.65;;
22778;SDS011;11556;51.194;3.800;2022-08-03T10:52:59;11.73;;;1.90;;
22778;SDS011;11556;51.194;3.800;2022-08-03T11:01:04;25.05;;;1.90;;
22778;SDS011;11556;51.194;3.800;2022-08-03T11:04:37;9.90;;;1.70;;
22778;SDS011;11556;51.194;3.800;2022-08-03T11:06:32;11.80;;;1.42;;
22778;SDS011;11556;51.194;3.800;2022-08-03T11:11:35;7.82;;;1.58;;
22778;SDS011;11556;51.194;3.800;2022-08-03T11:16:28;7.97;;;1.63;;
22778;SDS011;11556;51.194;3.800;2022-08-03T11:19:03;7.47;;;1.35;;
22778;SDS011;11556;51.194;3.800;2022-08-03T11:48:20;8.68;;;1.52;;
22778;SDS011;11556;51.194;3.800;2022-08-03T11:50:47;5.82;;;1.17;;
22778;SDS011;11556;51.194;3.800;2022-08-03T11:53:17;5.30;;;1.45;;
22778;SDS011;11556;51.194;3.800;2022-08-03T11:55:46;10.07;;;1.27;;
22778;SDS011;11556;51.194;3.800;2022-08-03T11:58:20;9.10;;;1.20;;
22778;SDS011;11556;51.194;3.800;2022-08-03T12:00:47;10.07;;;1.30;;
22778;SDS011;11556;51.194;3.800;2022-08-03T12:03:14;6.50;;;1.30;;
22778;SDS011;11556;51.194;3.800;2022-08-03T12:05:51;9.55;;;1.20;;
22778;SDS011;11556;51.194;3.800;2022-08-03T12:10:53;9.07;;;1.30;;
22778;SDS011;11556;51.194;3.800;2022-08-03T12:13:20;4.57;;;1.10;;
22778;SDS011;11556;51.194;3.800;2022-08-03T12:15:54;5.57;;;1.00;;
22778;SDS011;11556;51.194;3.800;2022-08-03T12:18:21;12.27;;;1.60;;
22778;SDS011;11556;51.194;3.800;2022-08-03T12:20:49;5.82;;;1.13;;
22778;SDS011;11556;51.194;3.800;2022-08-03T12:23:16;8.77;;;1.30;;
22778;SDS011;11556;51.194;3.800;2022-08-03T12:25:43;7.78;;;1.08;;
22778;SDS011;11556;51.194;3.800;2022-08-03T12:30:36;7.57;;;1.20;;
22778;SDS011;11556;51.194;3.800;2022-08-03T12:36:19;7.63;;;1.10;;
22778;SDS011;11556;51.194;3.800;2022-08-03T12:38:44;5.85;;;1.33;;
22778;SDS011;11556;51.194;3.800;2022-08-03T12:41:35;7.25;;;1.48;;
22778;SDS011;11556;51.194;3.800;2022-08-03T12:44:02;4.50;;;1.10;;
22778;SDS011;11556;51.194;3.800;2022-08-03T12:46:39;3.90;;;1.20;;
22778;SDS011;11556;51.194;3.800;2022-08-03T12:51:34;9.93;;;1.42;;
22778;SDS011;11556;51.194;3.800;2022-08-03T12:54:03;4.72;;;1.00;;
22778;SDS011;11556;51.194;3.800;2022-08-03T12:56:29;4.72;;;1.20;;
22778;SDS011;11556;51.194;3.800;2022-08-03T12:58:55;5.05;;;1.10;;
22778;SDS011;11556;51.194;3.800;2022-08-03T13:01:21;7.22;;;1.35;;
22778;SDS011;11556;51.194;3.800;2022-08-03T13:03:49;8.10;;;1.20;;
22778;SDS011;11556;51.194;3.800;2022-08-03T13:06:22;5.20;;;1.30;;
22778;SDS011;11556;51.194;3.800;2022-08-03T13:08:59;4.43;;;1.20;;
22778;SDS011;11556;51.194;3.800;2022-08-03T13:11:30;8.07;;;1.25;;
22778;SDS011;11556;51.194;3.800;2022-08-03T13:13:56;5.97;;;1.27;;
22778;SDS011;11556;51.194;3.800;2022-08-03T13:16:21;4.57;;;1.10;;
22778;SDS011;11556;51.194;3.800;2022-08-03T13:18:48;11.13;;;1.40;;
22778;SDS011;11556;51.194;3.800;2022-08-03T13:21:17;6.90;;;1.15;;
22778;SDS011;11556;51.194;3.800;2022-08-03T13:23:44;6.72;;;1.30;;
22778;SDS011;11556;51.194;3.800;2022-08-03T13:26:10;7.03;;;1.20;;
22778;SDS011;11556;51.194;3.800;2022-08-03T13:28:36;3.38;;;1.02;;
22778;SDS011;11556;51.194;3.800;2022-08-03T13:31:03;6.32;;;1.20;;
22778;SDS011;11556;51.194;3.800;2022-08-03T13:33:29;8.57;;;1.30;;
22778;SDS011;11556;51.194;3.800;2022-08-03T13:35:54;6.35;;;1.20;;
22778;SDS011;11556;51.194;3.800;2022-08-03T13:38:20;5.63;;;1.08;;
22778;SDS011;11556;51.194;3.800;2022-08-03T13:40:46;5.95;;;1.23;;
22778;SDS011;11556;51.194;3.800;2022-08-03T13:43:11;4.50;;;1.00;;
22778;SDS011;11556;51.194;3.800;2022-08-03T13:45:37;6.53;;;1.02;;
22778;SDS011;11556;51.194;3.800;2022-08-03T13:48:03;4.50;;;0.88;;
22778;SDS011;11556;51.194;3.800;2022-08-03T13:50:29;5.95;;;0.85;;
22778;SDS011;11556;51.194;3.800;2022-08-03T13:52:58;7.65;;;1.38;;
22778;SDS011;11556;51.194;3.800;2022-08-03T13:55:24;1.85;;;0.77;;
22778;SDS011;11556;51.194;3.800;2022-08-03T13:57:49;10.48;;;1.15;;
22778;SDS011;11556;51.194;3.800;2022-08-03T14:00:15;7.18;;;1.20;;
22778;SDS011;11556;51.194;3.800;2022-08-03T14:02:42;4.15;;;1.10;;
22778;SDS011;11556;51.194;3.800;2022-08-03T14:05:07;6.30;;;1.10;;
22778;SDS011;11556;51.194;3.800;2022-08-03T14:07:33;3.33;;;1.10;;
22778;SDS011;11556;51.194;3.800;2022-08-03T14:09:59;3.20;;;0.98;;
22778;SDS011;11556;51.194;3.800;2022-08-03T14:12:25;3.70;;;1.02;;
22778;SDS011;11556;51.194;3.800;2022-08-03T14:14:51;1.73;;;0.85;;
22778;SDS011;11556;51.194;3.800;2022-08-03T14:17:17;1.95;;;0.80;;
22778;SDS011;11556;51.194;3.800;2022-08-03T14:19:43;3.15;;;0.95;;
22778;SDS011;11556;51.194;3.800;2022-08-03T14:22:08;7.50;;;1.10;;
22778;SDS011;11556;51.194;3.800;2022-08-03T14:24:34;8.32;;;1.10;;
22778;SDS011;11556;51.194;3.800;2022-08-03T14:27:00;6.60;;;1.10;;
22778;SDS011;11556;51.194;3.800;2022-08-03T14:29:25;4.80;;;1.00;;
22778;SDS011;11556;51.194;3.800;2022-08-03T14:31:51;7.00;;;1.00;;
22778;SDS011;11556;51.194;3.800;2022-08-03T14:34:16;4.22;;;0.80;;
22778;SDS011;11556;51.194;3.800;2022-08-03T14:36:42;3.22;;;1.00;;
22778;SDS011;11556;51.194;3.800;2022-08-03T14:39:08;4.05;;;1.02;;
22778;SDS011;11556;51.194;3.800;2022-08-03T14:41:33;2.80;;;0.80;;
22778;SDS011;11556;51.194;3.800;2022-08-03T14:43:59;6.60;;;1.00;;
22778;SDS011;11556;51.194;3.800;2022-08-03T14:46:24;4.38;;;1.10;;
22778;SDS011;11556;51.194;3.800;2022-08-03T14:48:50;5.57;;;0.90;;
22778;SDS011;11556;51.194;3.800;2022-08-03T14:51:15;3.83;;;0.90;;
22778;SDS011;11556;51.194;3.800;2022-08-03T14:53:41;5.10;;;0.93;;
22778;SDS011;11556;51.194;3.800;2022-08-03T14:56:07;5.75;;;0.77;;
22778;SDS011;11556;51.194;3.800;2022-08-03T14:58:32;4.57;;;1.00;;
22778;SDS011;11556;51.194;3.800;2022-08-03T15:00:58;2.83;;;1.02;;
22778;SDS011;11556;51.194;3.800;2022-08-03T15:03:25;6.57;;;3.83;;
22778;SDS011;11556;51.194;3.800;2022-08-03T15:05:54;7.75;;;1.20;;
22778;SDS011;11556;51.194;3.800;2022-08-03T15:08:21;3.50;;;1.00;;
22778;SDS011;11556;51.194;3.800;2022-08-03T15:10:47;4.20;;;0.90;;
22778;SDS011;11556;51.194;3.800;2022-08-03T15:13:14;2.15;;;0.73;;
22778;SDS011;11556;51.194;3.800;2022-08-03T15:15:41;3.22;;;0.70;;
22778;SDS011;11556;51.194;3.800;2022-08-03T15:18:06;3.47;;;0.82;;
22778;SDS011;11556;51.194;3.800;2022-08-03T15:20:32;4.20;;;0.90;;
22778;SDS011;11556;51.194;3.800;2022-08-03T15:22:58;5.90;;;1.55;;
22778;SDS011;11556;51.194;3.800;2022-08-03T15:25:24;7.53;;;2.10;;
22778;SDS011;11556;51.194;3.800;2022-08-03T15:27:49;10.38;;;2.13;;
22778;SDS011;11556;51.194;3.800;2022-08-03T15:30:15;10.18;;;2.10;;
22778;SDS011;11556;51.194;3.800;2022-08-03T15:32:41;7.43;;;1.77;;
22778;SDS011;11556;51.194;3.800;2022-08-03T15:35:07;6.60;;;2.10;;
22778;SDS011;11556;51.194;3.800;2022-08-03T15:37:32;10.48;;;2.10;;
22778;SDS011;11556;51.194;3.800;2022-08-03T15:39:58;13.30;;;2.70;;
22778;SDS011;11556;51.194;3.800;2022-08-03T15:42:23;8.48;;;2.17;;
22778;SDS011;11556;51.194;3.800;2022-08-03T15:44:49;9.60;;;1.98;;
22778;SDS011;11556;51.194;3.800;2022-08-03T15:47:14;9.25;;;2.40;;
22778;SDS011;11556;51.194;3.800;2022-08-03T15:49:40;10.75;;;2.40;;
22778;SDS011;11556;51.194;3.800;2022-08-03T15:52:06;7.05;;;2.20;;
22778;SDS011;11556;51.194;3.800;2022-08-03T15:54:31;8.50;;;2.10;;
22778;SDS011;11556;51.194;3.800;2022-08-03T15:56:57;13.15;;;2.20;;
22778;SDS011;11556;51.194;3.800;2022-08-03T15:59:23;11.73;;;2.42;;
22778;SDS011;11556;51.194;3.800;2022-08-03T16:01:48;10.02;;;2.20;;